sensor_id;sensor_type;location;lat;lon;timestamp;P1;durP1;ratioP1;P2;durP2;ratioP2
77226;SDS011;66234;47.642;19.144;2023-02-28T00:00:13;15.07;;;7.32;;
77226;SDS011;66234;47.642;19.144;2023-02-28T00:03:16;14.47;;;7.53;;
77226;SDS011;66234;47.642;19.144;2023-02-28T00:06:19;11.65;;;6.18;;
77226;SDS011;66234;47.642;19.144;2023-02-28T00:09:23;16.23;;;6.75;;
77226;SDS011;66234;47.642;19.144;2023-02-28T00:12:26;19.13;;;7.85;;
77226;SDS011;66234;47.642;19.144;2023-02-28T00:15:29;20.40;;;7.80;;
77226;SDS011;66234;47.642;19.144;2023-02-28T00:18:31;15.70;;;8.13;;
77226;SDS011;66234;47.642;19.144;2023-02-28T00:21:34;16.02;;;7.30;;
77226;SDS011;66234;47.642;19.144;2023-02-28T00:24:37;15.97;;;7.50;;
77226;SDS011;66234;47.642;19.144;2023-02-28T00:27:40;19.25;;;7.45;;
77226;SDS011;66234;47.642;19.144;2023-02-28T00:30:43;15.43;;;7.35;;
77226;SDS011;66234;47.642;19.144;2023-02-28T00:33:46;14.65;;;7.10;;
77226;SDS011;66234;47.642;19.144;2023-02-28T00:36:49;17.57;;;7.00;;
77226;SDS011;66234;47.642;19.144;2023-02-28T00:39:52;10.75;;;5.70;;
77226;SDS011;66234;47.642;19.144;2023-02-28T00:42:54;12.70;;;5.78;;
77226;SDS011;66234;47.642;19.144;2023-02-28T00:45:57;11.57;;;6.15;;
77226;SDS011;66234;47.642;19.144;2023-02-28T00:49:00;17.03;;;6.70;;
77226;SDS011;66234;47.642;19.144;2023-02-28T00:52:03;13.52;;;6.15;;
77226;SDS011;66234;47.642;19.144;2023-02-28T00:55:05;11.50;;;5.95;;
77226;SDS011;66234;47.642;19.144;2023-02-28T00:58:08;10.23;;;5.97;;
77226;SDS011;66234;47.642;19.144;2023-02-28T01:01:11;15.07;;;6.50;;
77226;SDS011;66234;47.642;19.144;2023-02-28T01:04:14;14.05;;;6.60;;
77226;SDS011;66234;47.642;19.144;2023-02-28T01:07:16;12.95;;;6.60;;
77226;SDS011;66234;47.642;19.144;2023-02-28T01:10:21;14.73;;;6.72;;
77226;SDS011;66234;47.642;19.144;2023-02-28T01:13:24;12.70;;;6.70;;
77226;SDS011;66234;47.642;19.144;2023-02-28T01:16:27;14.10;;;5.80;;
77226;SDS011;66234;47.642;19.144;2023-02-28T01:19:31;15.95;;;6.72;;
77226;SDS011;66234;47.642;19.144;2023-02-28T01:22:34;14.57;;;5.72;;
77226;SDS011;66234;47.642;19.144;2023-02-28T01:25:37;14.33;;;6.77;;
77226;SDS011;66234;47.642;19.144;2023-02-28T01:28:40;13.43;;;6.72;;
77226;SDS011;66234;47.642;19.144;2023-02-28T01:31:43;12.40;;;5.28;;
77226;SDS011;66234;47.642;19.144;2023-02-28T01:34:46;14.73;;;6.70;;
77226;SDS011;66234;47.642;19.144;2023-02-28T01:37:48;18.20;;;7.37;;
77226;SDS011;66234;47.642;19.144;2023-02-28T01:40:51;12.95;;;6.03;;
77226;SDS011;66234;47.642;19.144;2023-02-28T01:44:07;14.10;;;6.78;;
77226;SDS011;66234;47.642;19.144;2023-02-28T01:47:46;13.48;;;6.60;;
77226;SDS011;66234;47.642;19.144;2023-02-28T01:50:53;15.63;;;6.80;;
77226;SDS011;66234;47.642;19.144;2023-02-28T01:54:00;16.85;;;7.47;;
77226;SDS011;66234;47.642;19.144;2023-02-28T01:57:09;14.70;;;6.85;;
77226;SDS011;66234;47.642;19.144;2023-02-28T02:00:17;14.18;;;7.25;;
77226;SDS011;66234;47.642;19.144;2023-02-28T02:03:22;13.20;;;6.47;;
77226;SDS011;66234;47.642;19.144;2023-02-28T02:06:27;14.85;;;6.85;;
77226;SDS011;66234;47.642;19.144;2023-02-28T02:09:32;14.40;;;7.50;;
77226;SDS011;66234;47.642;19.144;2023-02-28T02:23:39;15.18;;;7.10;;
77226;SDS011;66234;47.642;19.144;2023-02-28T02:27:12;17.00;;;7.27;;
77226;SDS011;66234;47.642;19.144;2023-02-28T02:41:16;16.33;;;7.43;;
77226;SDS011;66234;47.642;19.144;2023-02-28T02:44:43;15.55;;;6.50;;
77226;SDS011;66234;47.642;19.144;2023-02-28T02:47:53;17.38;;;7.35;;
77226;SDS011;66234;47.642;19.144;2023-02-28T02:51:01;17.40;;;7.47;;
77226;SDS011;66234;47.642;19.144;2023-02-28T02:54:17;16.43;;;7.80;;
77226;SDS011;66234;47.642;19.144;2023-02-28T02:57:29;13.53;;;6.73;;
77226;SDS011;66234;47.642;19.144;2023-02-28T03:00:41;14.77;;;7.32;;
77226;SDS011;66234;47.642;19.144;2023-02-28T03:03:54;14.50;;;6.05;;
77226;SDS011;66234;47.642;19.144;2023-02-28T03:07:03;14.18;;;6.57;;
77226;SDS011;66234;47.642;19.144;2023-02-28T03:17:00;14.70;;;6.05;;
77226;SDS011;66234;47.642;19.144;2023-02-28T03:23:55;11.53;;;6.70;;
77226;SDS011;66234;47.642;19.144;2023-02-28T03:27:10;11.30;;;6.68;;
77226;SDS011;66234;47.642;19.144;2023-02-28T03:30:22;13.43;;;6.65;;
77226;SDS011;66234;47.642;19.144;2023-02-28T03:33:49;15.15;;;6.38;;
77226;SDS011;66234;47.642;19.144;2023-02-28T03:37:07;16.40;;;7.43;;
77226;SDS011;66234;47.642;19.144;2023-02-28T03:40:17;12.15;;;6.47;;
77226;SDS011;66234;47.642;19.144;2023-02-28T03:43:25;12.60;;;5.97;;
77226;SDS011;66234;47.642;19.144;2023-02-28T03:46:32;12.40;;;6.60;;
77226;SDS011;66234;47.642;19.144;2023-02-28T03:49:40;13.30;;;6.40;;
77226;SDS011;66234;47.642;19.144;2023-02-28T03:52:50;12.57;;;6.20;;
77226;SDS011;66234;47.642;19.144;2023-02-28T03:56:07;12.75;;;6.18;;
77226;SDS011;66234;47.642;19.144;2023-02-28T03:59:21;16.02;;;5.88;;
77226;SDS011;66234;47.642;19.144;2023-02-28T04:02:31;13.27;;;6.50;;
77226;SDS011;66234;47.642;19.144;2023-02-28T04:05:43;11.25;;;5.88;;
77226;SDS011;66234;47.642;19.144;2023-02-28T04:08:55;13.30;;;6.05;;
77226;SDS011;66234;47.642;19.144;2023-02-28T04:11:57;9.23;;;5.32;;
77226;SDS011;66234;47.642;19.144;2023-02-28T04:15:00;13.77;;;6.63;;
77226;SDS011;66234;47.642;19.144;2023-02-28T04:18:05;9.83;;;5.90;;
77226;SDS011;66234;47.642;19.144;2023-02-28T04:21:08;13.77;;;6.40;;
77226;SDS011;66234;47.642;19.144;2023-02-28T04:24:12;14.20;;;6.75;;
77226;SDS011;66234;47.642;19.144;2023-02-28T04:27:18;12.10;;;6.50;;
77226;SDS011;66234;47.642;19.144;2023-02-28T04:30:21;11.80;;;6.93;;
77226;SDS011;66234;47.642;19.144;2023-02-28T04:33:23;14.70;;;7.30;;
77226;SDS011;66234;47.642;19.144;2023-02-28T04:36:26;16.23;;;7.38;;
77226;SDS011;66234;47.642;19.144;2023-02-28T04:39:29;12.27;;;5.85;;
77226;SDS011;66234;47.642;19.144;2023-02-28T04:42:32;13.40;;;5.83;;
77226;SDS011;66234;47.642;19.144;2023-02-28T04:45:37;9.95;;;5.85;;
77226;SDS011;66234;47.642;19.144;2023-02-28T04:48:40;10.18;;;4.68;;
77226;SDS011;66234;47.642;19.144;2023-02-28T04:51:43;16.27;;;6.50;;
77226;SDS011;66234;47.642;19.144;2023-02-28T04:54:45;16.47;;;6.50;;
77226;SDS011;66234;47.642;19.144;2023-02-28T04:57:48;13.30;;;6.75;;
77226;SDS011;66234;47.642;19.144;2023-02-28T05:00:51;12.07;;;5.57;;
77226;SDS011;66234;47.642;19.144;2023-02-28T05:03:56;10.60;;;5.22;;
77226;SDS011;66234;47.642;19.144;2023-02-28T05:07:00;13.77;;;5.93;;
77226;SDS011;66234;47.642;19.144;2023-02-28T05:10:04;13.75;;;6.30;;
77226;SDS011;66234;47.642;19.144;2023-02-28T05:13:09;12.25;;;5.38;;
77226;SDS011;66234;47.642;19.144;2023-02-28T05:16:15;11.13;;;4.67;;
77226;SDS011;66234;47.642;19.144;2023-02-28T05:19:18;11.53;;;5.90;;
77226;SDS011;66234;47.642;19.144;2023-02-28T05:22:23;13.80;;;5.72;;
77226;SDS011;66234;47.642;19.144;2023-02-28T05:25:26;11.27;;;5.72;;
77226;SDS011;66234;47.642;19.144;2023-02-28T05:28:28;13.97;;;6.33;;
77226;SDS011;66234;47.642;19.144;2023-02-28T05:31:31;8.40;;;4.73;;
77226;SDS011;66234;47.642;19.144;2023-02-28T05:34:34;11.55;;;5.45;;
77226;SDS011;66234;47.642;19.144;2023-02-28T05:37:38;10.85;;;5.28;;
77226;SDS011;66234;47.642;19.144;2023-02-28T05:40:41;11.35;;;5.07;;
77226;SDS011;66234;47.642;19.144;2023-02-28T05:43:44;10.70;;;5.60;;
77226;SDS011;66234;47.642;19.144;2023-02-28T05:46:46;14.05;;;5.60;;
77226;SDS011;66234;47.642;19.144;2023-02-28T05:49:49;9.85;;;5.10;;
77226;SDS011;66234;47.642;19.144;2023-02-28T05:52:52;13.98;;;6.95;;
77226;SDS011;66234;47.642;19.144;2023-02-28T05:55:55;11.83;;;6.23;;
77226;SDS011;66234;47.642;19.144;2023-02-28T05:58:57;13.82;;;5.82;;
77226;SDS011;66234;47.642;19.144;2023-02-28T06:02:00;13.85;;;5.43;;
77226;SDS011;66234;47.642;19.144;2023-02-28T06:05:02;12.13;;;5.50;;
77226;SDS011;66234;47.642;19.144;2023-02-28T06:08:05;11.97;;;6.33;;
77226;SDS011;66234;47.642;19.144;2023-02-28T06:11:09;10.77;;;5.72;;
77226;SDS011;66234;47.642;19.144;2023-02-28T06:14:15;11.40;;;5.50;;
77226;SDS011;66234;47.642;19.144;2023-02-28T06:17:19;12.52;;;5.35;;
77226;SDS011;66234;47.642;19.144;2023-02-28T06:20:22;11.23;;;5.27;;
77226;SDS011;66234;47.642;19.144;2023-02-28T06:23:25;11.38;;;5.25;;
77226;SDS011;66234;47.642;19.144;2023-02-28T06:26:28;18.88;;;5.78;;
77226;SDS011;66234;47.642;19.144;2023-02-28T06:29:33;10.93;;;5.45;;
77226;SDS011;66234;47.642;19.144;2023-02-28T06:32:36;15.57;;;5.67;;
77226;SDS011;66234;47.642;19.144;2023-02-28T06:35:39;10.27;;;4.97;;
77226;SDS011;66234;47.642;19.144;2023-02-28T06:38:42;14.90;;;5.97;;
77226;SDS011;66234;47.642;19.144;2023-02-28T06:41:45;13.98;;;6.40;;
77226;SDS011;66234;47.642;19.144;2023-02-28T06:44:57;10.10;;;4.63;;
77226;SDS011;66234;47.642;19.144;2023-02-28T06:47:59;11.33;;;5.53;;
77226;SDS011;66234;47.642;19.144;2023-02-28T06:51:03;15.13;;;6.55;;
77226;SDS011;66234;47.642;19.144;2023-02-28T06:54:10;10.73;;;5.65;;
77226;SDS011;66234;47.642;19.144;2023-02-28T06:57:14;12.60;;;5.35;;
77226;SDS011;66234;47.642;19.144;2023-02-28T07:00:17;10.50;;;4.53;;
77226;SDS011;66234;47.642;19.144;2023-02-28T07:03:20;12.90;;;5.33;;
77226;SDS011;66234;47.642;19.144;2023-02-28T07:06:23;9.57;;;4.78;;
77226;SDS011;66234;47.642;19.144;2023-02-28T07:09:26;17.95;;;9.70;;
77226;SDS011;66234;47.642;19.144;2023-02-28T07:12:32;7.50;;;4.30;;
77226;SDS011;66234;47.642;19.144;2023-02-28T07:15:35;10.80;;;4.90;;
77226;SDS011;66234;47.642;19.144;2023-02-28T07:18:45;15.17;;;6.67;;
77226;SDS011;66234;47.642;19.144;2023-02-28T07:21:48;10.65;;;5.32;;
77226;SDS011;66234;47.642;19.144;2023-02-28T07:24:51;8.75;;;5.03;;
77226;SDS011;66234;47.642;19.144;2023-02-28T07:27:54;11.10;;;4.40;;
77226;SDS011;66234;47.642;19.144;2023-02-28T07:31:02;8.03;;;3.90;;
77226;SDS011;66234;47.642;19.144;2023-02-28T07:34:06;9.60;;;4.73;;
77226;SDS011;66234;47.642;19.144;2023-02-28T07:37:09;8.25;;;4.45;;
77226;SDS011;66234;47.642;19.144;2023-02-28T07:40:12;7.55;;;3.88;;
77226;SDS011;66234;47.642;19.144;2023-02-28T07:43:15;10.60;;;4.38;;
77226;SDS011;66234;47.642;19.144;2023-02-28T07:46:17;8.90;;;4.13;;
77226;SDS011;66234;47.642;19.144;2023-02-28T07:49:22;9.20;;;4.53;;
77226;SDS011;66234;47.642;19.144;2023-02-28T07:52:25;9.63;;;4.70;;
77226;SDS011;66234;47.642;19.144;2023-02-28T07:55:28;8.02;;;4.97;;
77226;SDS011;66234;47.642;19.144;2023-02-28T07:58:30;5.80;;;3.45;;
77226;SDS011;66234;47.642;19.144;2023-02-28T08:01:34;8.97;;;3.90;;
77226;SDS011;66234;47.642;19.144;2023-02-28T08:04:37;9.27;;;3.77;;
77226;SDS011;66234;47.642;19.144;2023-02-28T08:07:40;7.95;;;4.40;;
77226;SDS011;66234;47.642;19.144;2023-02-28T08:10:43;7.88;;;4.13;;
77226;SDS011;66234;47.642;19.144;2023-02-28T08:13:46;7.97;;;4.10;;
77226;SDS011;66234;47.642;19.144;2023-02-28T08:16:48;14.30;;;4.90;;
77226;SDS011;66234;47.642;19.144;2023-02-28T08:19:52;11.77;;;4.40;;
77226;SDS011;66234;47.642;19.144;2023-02-28T08:22:55;8.90;;;4.00;;
77226;SDS011;66234;47.642;19.144;2023-02-28T08:25:57;6.80;;;3.78;;
77226;SDS011;66234;47.642;19.144;2023-02-28T08:29:00;8.00;;;4.15;;
77226;SDS011;66234;47.642;19.144;2023-02-28T08:32:03;10.23;;;4.87;;
77226;SDS011;66234;47.642;19.144;2023-02-28T08:35:07;9.63;;;4.37;;
77226;SDS011;66234;47.642;19.144;2023-02-28T08:38:11;8.68;;;4.40;;
77226;SDS011;66234;47.642;19.144;2023-02-28T08:41:13;9.25;;;4.65;;
77226;SDS011;66234;47.642;19.144;2023-02-28T08:44:17;17.20;;;6.15;;
77226;SDS011;66234;47.642;19.144;2023-02-28T08:47:19;16.30;;;4.93;;
77226;SDS011;66234;47.642;19.144;2023-02-28T08:50:23;8.57;;;5.00;;
77226;SDS011;66234;47.642;19.144;2023-02-28T08:53:26;7.25;;;3.63;;
77226;SDS011;66234;47.642;19.144;2023-02-28T08:56:29;8.98;;;4.28;;
77226;SDS011;66234;47.642;19.144;2023-02-28T08:59:32;8.95;;;5.43;;
77226;SDS011;66234;47.642;19.144;2023-02-28T09:02:35;8.60;;;4.50;;
77226;SDS011;66234;47.642;19.144;2023-02-28T09:05:39;7.67;;;3.57;;
77226;SDS011;66234;47.642;19.144;2023-02-28T09:08:42;7.93;;;4.07;;
77226;SDS011;66234;47.642;19.144;2023-02-28T09:11:46;10.00;;;4.40;;
77226;SDS011;66234;47.642;19.144;2023-02-28T09:14:48;6.32;;;3.90;;
77226;SDS011;66234;47.642;19.144;2023-02-28T09:17:51;7.43;;;3.07;;
77226;SDS011;66234;47.642;19.144;2023-02-28T09:20:54;9.73;;;3.53;;
77226;SDS011;66234;47.642;19.144;2023-02-28T09:23:56;7.47;;;3.97;;
77226;SDS011;66234;47.642;19.144;2023-02-28T09:26:59;5.53;;;2.65;;
77226;SDS011;66234;47.642;19.144;2023-02-28T09:30:07;4.20;;;2.47;;
77226;SDS011;66234;47.642;19.144;2023-02-28T09:33:10;5.77;;;3.17;;
77226;SDS011;66234;47.642;19.144;2023-02-28T09:36:13;5.50;;;3.03;;
77226;SDS011;66234;47.642;19.144;2023-02-28T09:39:15;7.68;;;3.58;;
77226;SDS011;66234;47.642;19.144;2023-02-28T09:42:21;6.35;;;3.78;;
77226;SDS011;66234;47.642;19.144;2023-02-28T09:45:41;6.45;;;2.70;;
77226;SDS011;66234;47.642;19.144;2023-02-28T09:48:49;6.90;;;3.40;;
77226;SDS011;66234;47.642;19.144;2023-02-28T09:58:33;8.18;;;4.30;;
77226;SDS011;66234;47.642;19.144;2023-02-28T10:01:47;7.85;;;4.47;;
77226;SDS011;66234;47.642;19.144;2023-02-28T10:05:01;10.53;;;3.80;;
77226;SDS011;66234;47.642;19.144;2023-02-28T10:08:14;8.57;;;3.37;;
77226;SDS011;66234;47.642;19.144;2023-02-28T10:11:20;9.02;;;2.95;;
77226;SDS011;66234;47.642;19.144;2023-02-28T10:14:26;6.80;;;3.55;;
77226;SDS011;66234;47.642;19.144;2023-02-28T10:17:36;7.78;;;4.18;;
77226;SDS011;66234;47.642;19.144;2023-02-28T10:21:02;9.50;;;5.60;;
77226;SDS011;66234;47.642;19.144;2023-02-28T10:24:28;7.40;;;3.83;;
77226;SDS011;66234;47.642;19.144;2023-02-28T10:27:41;5.45;;;3.03;;
77226;SDS011;66234;47.642;19.144;2023-02-28T10:30:48;7.07;;;3.15;;
77226;SDS011;66234;47.642;19.144;2023-02-28T10:33:52;6.55;;;3.08;;
77226;SDS011;66234;47.642;19.144;2023-02-28T10:36:55;6.33;;;3.40;;
77226;SDS011;66234;47.642;19.144;2023-02-28T10:39:58;6.63;;;3.77;;
77226;SDS011;66234;47.642;19.144;2023-02-28T10:49:19;6.78;;;3.47;;
77226;SDS011;66234;47.642;19.144;2023-02-28T10:52:36;7.27;;;3.73;;
77226;SDS011;66234;47.642;19.144;2023-02-28T10:55:41;7.97;;;3.60;;
77226;SDS011;66234;47.642;19.144;2023-02-28T11:02:29;12.40;;;4.63;;
77226;SDS011;66234;47.642;19.144;2023-02-28T11:05:35;7.90;;;3.85;;
77226;SDS011;66234;47.642;19.144;2023-02-28T11:08:49;8.87;;;3.70;;
77226;SDS011;66234;47.642;19.144;2023-02-28T11:11:54;8.73;;;3.30;;
77226;SDS011;66234;47.642;19.144;2023-02-28T11:14:58;6.60;;;2.95;;
77226;SDS011;66234;47.642;19.144;2023-02-28T11:21:32;4.95;;;3.22;;
77226;SDS011;66234;47.642;19.144;2023-02-28T11:24:42;5.33;;;3.40;;
77226;SDS011;66234;47.642;19.144;2023-02-28T11:27:56;6.23;;;4.27;;
77226;SDS011;66234;47.642;19.144;2023-02-28T11:34:25;5.75;;;3.83;;
77226;SDS011;66234;47.642;19.144;2023-02-28T11:37:30;9.38;;;3.50;;
77226;SDS011;66234;47.642;19.144;2023-02-28T11:47:05;7.40;;;3.22;;
77226;SDS011;66234;47.642;19.144;2023-02-28T11:56:48;6.40;;;3.70;;
77226;SDS011;66234;47.642;19.144;2023-02-28T12:10:26;7.85;;;3.53;;
77226;SDS011;66234;47.642;19.144;2023-02-28T12:17:13;8.40;;;3.70;;
77226;SDS011;66234;47.642;19.144;2023-02-28T12:20:35;5.60;;;3.63;;
77226;SDS011;66234;47.642;19.144;2023-02-28T12:24:06;6.20;;;3.63;;
77226;SDS011;66234;47.642;19.144;2023-02-28T12:27:27;7.63;;;4.15;;
77226;SDS011;66234;47.642;19.144;2023-02-28T12:30:34;10.63;;;4.20;;
77226;SDS011;66234;47.642;19.144;2023-02-28T12:33:43;7.17;;;3.43;;
77226;SDS011;66234;47.642;19.144;2023-02-28T12:36:49;6.13;;;3.65;;
77226;SDS011;66234;47.642;19.144;2023-02-28T12:39:59;4.85;;;3.38;;
77226;SDS011;66234;47.642;19.144;2023-02-28T12:43:09;6.20;;;4.00;;
77226;SDS011;66234;47.642;19.144;2023-02-28T12:49:24;7.63;;;4.00;;
77226;SDS011;66234;47.642;19.144;2023-02-28T13:06:05;7.60;;;4.17;;
77226;SDS011;66234;47.642;19.144;2023-02-28T13:09:28;9.75;;;3.92;;
77226;SDS011;66234;47.642;19.144;2023-02-28T13:12:31;7.20;;;3.60;;
77226;SDS011;66234;47.642;19.144;2023-02-28T13:15:35;6.70;;;4.20;;
77226;SDS011;66234;47.642;19.144;2023-02-28T13:18:43;6.60;;;4.33;;
77226;SDS011;66234;47.642;19.144;2023-02-28T13:21:49;6.73;;;3.40;;
77226;SDS011;66234;47.642;19.144;2023-02-28T13:24:53;7.70;;;3.95;;
77226;SDS011;66234;47.642;19.144;2023-02-28T13:27:57;7.07;;;3.53;;
77226;SDS011;66234;47.642;19.144;2023-02-28T13:31:04;6.05;;;3.95;;
77226;SDS011;66234;47.642;19.144;2023-02-28T13:34:15;6.63;;;3.27;;
77226;SDS011;66234;47.642;19.144;2023-02-28T13:40:27;6.93;;;4.32;;
77226;SDS011;66234;47.642;19.144;2023-02-28T13:43:59;7.15;;;3.60;;
77226;SDS011;66234;47.642;19.144;2023-02-28T13:47:20;6.90;;;4.20;;
77226;SDS011;66234;47.642;19.144;2023-02-28T13:53:42;8.23;;;3.73;;
77226;SDS011;66234;47.642;19.144;2023-02-28T14:07:25;5.50;;;3.27;;
77226;SDS011;66234;47.642;19.144;2023-02-28T14:10:42;6.10;;;3.10;;
77226;SDS011;66234;47.642;19.144;2023-02-28T14:13:50;6.43;;;3.65;;
77226;SDS011;66234;47.642;19.144;2023-02-28T14:16:55;5.80;;;3.10;;
77226;SDS011;66234;47.642;19.144;2023-02-28T14:20:01;5.38;;;3.10;;
77226;SDS011;66234;47.642;19.144;2023-02-28T14:27:15;5.97;;;3.13;;
77226;SDS011;66234;47.642;19.144;2023-02-28T14:33:54;6.45;;;3.22;;
77226;SDS011;66234;47.642;19.144;2023-02-28T14:37:02;9.35;;;4.88;;
77226;SDS011;66234;47.642;19.144;2023-02-28T14:40:13;9.13;;;4.70;;
77226;SDS011;66234;47.642;19.144;2023-02-28T14:43:25;14.23;;;8.10;;
77226;SDS011;66234;47.642;19.144;2023-02-28T14:46:37;9.80;;;5.43;;
77226;SDS011;66234;47.642;19.144;2023-02-28T14:49:44;4.30;;;2.35;;
77226;SDS011;66234;47.642;19.144;2023-02-28T14:52:53;6.93;;;3.30;;
77226;SDS011;66234;47.642;19.144;2023-02-28T14:55:57;6.37;;;3.60;;
77226;SDS011;66234;47.642;19.144;2023-02-28T14:59:04;6.20;;;2.83;;
77226;SDS011;66234;47.642;19.144;2023-02-28T15:02:15;17.55;;;7.75;;
77226;SDS011;66234;47.642;19.144;2023-02-28T15:08:35;5.82;;;3.47;;
77226;SDS011;66234;47.642;19.144;2023-02-28T15:11:39;11.57;;;5.50;;
77226;SDS011;66234;47.642;19.144;2023-02-28T15:14:44;11.87;;;5.70;;
77226;SDS011;66234;47.642;19.144;2023-02-28T15:17:49;8.25;;;4.68;;
77226;SDS011;66234;47.642;19.144;2023-02-28T15:20:56;11.68;;;5.88;;
77226;SDS011;66234;47.642;19.144;2023-02-28T15:27:28;9.33;;;4.77;;
77226;SDS011;66234;47.642;19.144;2023-02-28T15:30:35;15.37;;;7.00;;
77226;SDS011;66234;47.642;19.144;2023-02-28T15:33:38;14.98;;;6.93;;
77226;SDS011;66234;47.642;19.144;2023-02-28T15:36:54;15.85;;;6.30;;
77226;SDS011;66234;47.642;19.144;2023-02-28T15:40:17;12.80;;;6.30;;
77226;SDS011;66234;47.642;19.144;2023-02-28T15:43:33;15.10;;;6.73;;
77226;SDS011;66234;47.642;19.144;2023-02-28T15:46:37;17.27;;;10.20;;
77226;SDS011;66234;47.642;19.144;2023-02-28T15:49:47;26.65;;;14.85;;
77226;SDS011;66234;47.642;19.144;2023-02-28T15:52:53;16.85;;;8.80;;
77226;SDS011;66234;47.642;19.144;2023-02-28T15:55:58;10.55;;;5.80;;
77226;SDS011;66234;47.642;19.144;2023-02-28T15:59:07;14.37;;;7.07;;
77226;SDS011;66234;47.642;19.144;2023-02-28T16:02:17;11.97;;;5.70;;
77226;SDS011;66234;47.642;19.144;2023-02-28T16:08:30;11.13;;;5.50;;
77226;SDS011;66234;47.642;19.144;2023-02-28T16:11:33;16.25;;;6.82;;
77226;SDS011;66234;47.642;19.144;2023-02-28T16:14:38;14.60;;;7.77;;
77226;SDS011;66234;47.642;19.144;2023-02-28T16:17:42;19.47;;;10.13;;
77226;SDS011;66234;47.642;19.144;2023-02-28T16:20:45;20.40;;;12.00;;
77226;SDS011;66234;47.642;19.144;2023-02-28T16:23:48;21.52;;;10.60;;
77226;SDS011;66234;47.642;19.144;2023-02-28T16:26:51;21.10;;;9.77;;
77226;SDS011;66234;47.642;19.144;2023-02-28T16:29:57;23.97;;;10.17;;
77226;SDS011;66234;47.642;19.144;2023-02-28T16:33:00;28.43;;;10.40;;
77226;SDS011;66234;47.642;19.144;2023-02-28T16:36:02;37.20;;;17.00;;
77226;SDS011;66234;47.642;19.144;2023-02-28T16:39:05;30.13;;;14.05;;
77226;SDS011;66234;47.642;19.144;2023-02-28T16:42:10;27.10;;;12.93;;
77226;SDS011;66234;47.642;19.144;2023-02-28T16:45:39;23.97;;;10.73;;
77226;SDS011;66234;47.642;19.144;2023-02-28T16:48:43;20.87;;;10.87;;
77226;SDS011;66234;47.642;19.144;2023-02-28T16:51:46;14.32;;;8.88;;
77226;SDS011;66234;47.642;19.144;2023-02-28T16:54:49;14.35;;;8.73;;
77226;SDS011;66234;47.642;19.144;2023-02-28T16:57:56;16.75;;;9.93;;
77226;SDS011;66234;47.642;19.144;2023-02-28T17:01:01;23.03;;;15.00;;
77226;SDS011;66234;47.642;19.144;2023-02-28T17:04:04;20.17;;;8.53;;
77226;SDS011;66234;47.642;19.144;2023-02-28T17:07:16;21.73;;;10.80;;
77226;SDS011;66234;47.642;19.144;2023-02-28T17:10:23;23.80;;;12.70;;
77226;SDS011;66234;47.642;19.144;2023-02-28T17:13:28;26.90;;;12.45;;
77226;SDS011;66234;47.642;19.144;2023-02-28T17:16:32;28.77;;;14.03;;
77226;SDS011;66234;47.642;19.144;2023-02-28T17:19:39;25.80;;;14.13;;
77226;SDS011;66234;47.642;19.144;2023-02-28T17:22:45;27.38;;;14.40;;
77226;SDS011;66234;47.642;19.144;2023-02-28T17:25:47;28.20;;;11.98;;
77226;SDS011;66234;47.642;19.144;2023-02-28T17:28:58;23.33;;;13.48;;
77226;SDS011;66234;47.642;19.144;2023-02-28T17:32:01;24.17;;;13.97;;
77226;SDS011;66234;47.642;19.144;2023-02-28T17:35:18;21.97;;;12.77;;
77226;SDS011;66234;47.642;19.144;2023-02-28T17:38:21;21.50;;;11.68;;
77226;SDS011;66234;47.642;19.144;2023-02-28T17:41:25;23.85;;;11.52;;
77226;SDS011;66234;47.642;19.144;2023-02-28T17:44:28;18.92;;;10.02;;
77226;SDS011;66234;47.642;19.144;2023-02-28T17:47:31;18.67;;;9.27;;
77226;SDS011;66234;47.642;19.144;2023-02-28T17:50:34;17.83;;;9.33;;
77226;SDS011;66234;47.642;19.144;2023-02-28T17:53:37;19.85;;;9.77;;
77226;SDS011;66234;47.642;19.144;2023-02-28T17:56:40;21.85;;;10.60;;
77226;SDS011;66234;47.642;19.144;2023-02-28T17:59:45;23.00;;;11.05;;
77226;SDS011;66234;47.642;19.144;2023-02-28T18:02:48;26.00;;;13.07;;
77226;SDS011;66234;47.642;19.144;2023-02-28T18:05:51;29.73;;;12.70;;
77226;SDS011;66234;47.642;19.144;2023-02-28T18:08:54;30.33;;;13.60;;
77226;SDS011;66234;47.642;19.144;2023-02-28T18:11:57;36.03;;;16.13;;
77226;SDS011;66234;47.642;19.144;2023-02-28T18:15:00;33.28;;;16.38;;
77226;SDS011;66234;47.642;19.144;2023-02-28T18:18:04;37.10;;;18.47;;
77226;SDS011;66234;47.642;19.144;2023-02-28T18:21:09;33.10;;;14.33;;
77226;SDS011;66234;47.642;19.144;2023-02-28T18:24:13;27.95;;;11.98;;
77226;SDS011;66234;47.642;19.144;2023-02-28T18:27:17;29.05;;;12.25;;
77226;SDS011;66234;47.642;19.144;2023-02-28T18:30:20;23.60;;;11.20;;
77226;SDS011;66234;47.642;19.144;2023-02-28T18:33:23;16.83;;;9.33;;
77226;SDS011;66234;47.642;19.144;2023-02-28T18:36:26;13.90;;;7.77;;
77226;SDS011;66234;47.642;19.144;2023-02-28T18:39:30;14.52;;;8.18;;
77226;SDS011;66234;47.642;19.144;2023-02-28T18:42:34;16.25;;;8.20;;
77226;SDS011;66234;47.642;19.144;2023-02-28T18:45:37;18.88;;;9.65;;
77226;SDS011;66234;47.642;19.144;2023-02-28T18:48:41;16.20;;;9.27;;
77226;SDS011;66234;47.642;19.144;2023-02-28T18:51:44;23.90;;;10.37;;
77226;SDS011;66234;47.642;19.144;2023-02-28T18:54:48;16.05;;;9.38;;
77226;SDS011;66234;47.642;19.144;2023-02-28T18:57:51;20.10;;;8.80;;
77226;SDS011;66234;47.642;19.144;2023-02-28T19:00:56;18.75;;;9.77;;
77226;SDS011;66234;47.642;19.144;2023-02-28T19:03:59;23.50;;;11.57;;
77226;SDS011;66234;47.642;19.144;2023-02-28T19:07:05;22.77;;;10.13;;
77226;SDS011;66234;47.642;19.144;2023-02-28T19:10:08;20.02;;;11.20;;
77226;SDS011;66234;47.642;19.144;2023-02-28T19:13:15;25.10;;;11.35;;
77226;SDS011;66234;47.642;19.144;2023-02-28T19:16:20;20.98;;;10.32;;
77226;SDS011;66234;47.642;19.144;2023-02-28T19:19:23;19.23;;;10.77;;
77226;SDS011;66234;47.642;19.144;2023-02-28T19:22:26;17.93;;;9.37;;
77226;SDS011;66234;47.642;19.144;2023-02-28T19:25:29;20.20;;;10.80;;
77226;SDS011;66234;47.642;19.144;2023-02-28T19:28:32;19.08;;;9.50;;
77226;SDS011;66234;47.642;19.144;2023-02-28T19:31:35;17.77;;;9.27;;
77226;SDS011;66234;47.642;19.144;2023-02-28T19:34:37;17.20;;;9.13;;
77226;SDS011;66234;47.642;19.144;2023-02-28T19:37:40;17.33;;;8.53;;
77226;SDS011;66234;47.642;19.144;2023-02-28T19:40:44;15.25;;;7.78;;
77226;SDS011;66234;47.642;19.144;2023-02-28T19:43:48;14.80;;;7.07;;
77226;SDS011;66234;47.642;19.144;2023-02-28T19:46:52;13.60;;;7.13;;
77226;SDS011;66234;47.642;19.144;2023-02-28T19:49:56;16.43;;;7.40;;
77226;SDS011;66234;47.642;19.144;2023-02-28T19:52:59;16.17;;;7.73;;
77226;SDS011;66234;47.642;19.144;2023-02-28T19:56:04;13.85;;;7.63;;
77226;SDS011;66234;47.642;19.144;2023-02-28T19:59:07;17.75;;;8.50;;
77226;SDS011;66234;47.642;19.144;2023-02-28T20:02:23;15.80;;;7.35;;
77226;SDS011;66234;47.642;19.144;2023-02-28T20:05:27;16.57;;;8.17;;
77226;SDS011;66234;47.642;19.144;2023-02-28T20:08:30;13.60;;;8.17;;
77226;SDS011;66234;47.642;19.144;2023-02-28T20:11:33;18.30;;;8.27;;
77226;SDS011;66234;47.642;19.144;2023-02-28T20:14:37;16.20;;;7.18;;
77226;SDS011;66234;47.642;19.144;2023-02-28T20:17:40;15.95;;;7.30;;
77226;SDS011;66234;47.642;19.144;2023-02-28T20:20:44;12.33;;;6.40;;
77226;SDS011;66234;47.642;19.144;2023-02-28T20:23:47;14.47;;;7.30;;